Main page
METAR-TAF:

METAR-TAF

Airports :

RAF Kinloss

Kinloss, Scotland

latitude: 57-39N, longitude: 003-34W, elevation: 7 m

Current weather observation

The report was made 57 minutes ago, at 03:50 UTC
Wind 5 kt from the Southwest
Temperature 3°C
Humidity 93%
Pressure 994 hPa
Visibility 10 km or more

METAR: EGQK 240350Z AUTO 22005KT 9999 FEW025/// 03/02 Q0994 REUP

Time: 05:47 (04:47 UTC)

Forecast

The report was made 12 hours and 4 minutes ago, at 16:43 UTC
Forecast valid from 23 at 18 UTC to 24 at 12 UTC
Wind 7 kt from the East
Visibility 10 km or more
Few clouds at a height of 2500 ft
Probability 30% :
Temporary
from 24 at 02 UTC to 24 at 11 UTC
Visibility: 7000 m
Scattered clouds at a height of 2400 ft
light rain showers

TAF: EGQK 231643Z 2318/2412 08007KT 9999 FEW025 PROB30 TEMPO 2402/2411 7000 -SHRA SCT024

Weather observations and forecasts of more than 4000 airports (METAR and TAF reports).

The available stations are represented by yellow and red dots on the map.

Hover mouse over dot to see the name of the station.

Then click to see weather observations and forecasts.

To change the map : click on the green buttons with a black cross to zoom in, on the green button with a dash to zoom out, or on the green arrows for adjacent maps.


METAR-TAF: